Time;durP1;ratioP1;P1;durP2;ratioP2;P2;SDS_P1;SDS_P2;PMS_P1;PMS_P2;Temp;Humidity;BMP_temperature;BMP_pressure;BME280_temperature;BME280_humidity;BME280_pressure;Samples;Min_cycle;Max_cycle;Signal;HPM_P1;HPM_P2
2023/04/07 00:01:26;;;;;;;1.93;1.70;;;;;;;;;;5092017;28;20249;-87
2023/04/07 00:03:54;;;;;;;1.53;1.43;;;;;;;;;;5091830;28;20216;-87
2023/04/07 00:06:23;;;;;;;2.80;2.47;;;;;;;;;;5091972;28;20227;-87
2023/04/07 00:08:52;;;;;;;2.13;1.97;;;;;;;;;;5092288;28;20304;-87
2023/04/07 00:11:20;;;;;;;4.10;3.23;;;;;;;;;;5091703;28;20275;-87
2023/04/07 00:13:48;;;;;;;1.27;1.17;;;;;;;;;;5092279;28;20258;-86
2023/04/07 00:16:17;;;;;;;1.73;1.50;;;;;;;;;;5092332;28;20241;-87
2023/04/07 00:18:47;;;;;;;1.60;1.50;;;;;;;;;;5092275;28;20205;-87
2023/04/07 00:21:15;;;;;;;3.50;1.67;;;;;;;;;;5092031;28;20250;-86
2023/04/07 00:23:45;;;;;;;1.40;1.30;;;;;;;;;;5091959;28;20287;-87
2023/04/07 00:26:13;;;;;;;7.50;2.63;;;;;;;;;;5091374;28;20229;-87
2023/04/07 00:28:42;;;;;;;10.63;2.20;;;;;;;;;;5091658;28;20241;-86
2023/04/07 00:31:10;;;;;;;3.93;1.63;;;;;;;;;;5091910;28;20201;-87
2023/04/07 00:33:39;;;;;;;3.87;1.50;;;;;;;;;;5091928;28;20221;-87
2023/04/07 00:36:09;;;;;;;7.23;1.57;;;;;;;;;;5091766;28;20242;-87
2023/04/07 00:38:37;;;;;;;1.90;1.27;;;;;;;;;;5091751;28;20200;-86
2023/04/07 00:41:06;;;;;;;6.30;2.33;;;;;;;;;;5090942;28;20217;-87
2023/04/07 00:43:34;;;;;;;1.10;1.10;;;;;;;;;;5091585;28;20204;-87
2023/04/07 00:46:03;;;;;;;1.03;1.03;;;;;;;;;;5091799;28;20201;-87
2023/04/07 00:48:31;;;;;;;3.40;1.63;;;;;;;;;;5091538;28;20225;-86
2023/04/07 00:50:59;;;;;;;7.00;1.87;;;;;;;;;;5095279;28;20207;-87
2023/04/07 00:53:29;;;;;;;7.07;2.00;;;;;;;;;;5095274;28;20209;-87
2023/04/07 00:55:58;;;;;;;7.93;1.53;;;;;;;;;;5095669;28;20199;-87
2023/04/07 00:58:26;;;;;;;11.80;2.03;;;;;;;;;;5095299;28;20329;-87
2023/04/07 01:01:00;;;;;;;3.27;1.60;;;;;;;;;;5095788;28;20200;-86
2023/04/07 01:03:31;;;;;;;5.37;3.07;;;;;;;;;;5095185;28;20208;-87
2023/04/07 01:06:01;;;;;;;2.30;2.10;;;;;;;;;;5095845;28;20203;-87
2023/04/07 01:08:33;;;;;;;2.33;2.00;;;;;;;;;;5095225;28;20313;-87
2023/04/07 01:11:07;;;;;;;15.53;2.27;;;;;;;;;;5095283;28;20201;-87
2023/04/07 01:13:37;;;;;;;3.17;2.87;;;;;;;;;;5095230;28;20217;-87
2023/04/07 01:16:10;;;;;;;4.17;1.70;;;;;;;;;;5095230;28;20282;-87
2023/04/07 01:18:38;;;;;;;0.97;0.97;;;;;;;;;;5094491;28;20271;-87
2023/04/07 01:21:10;;;;;;;3.63;1.90;;;;;;;;;;5094818;28;20200;-87
2023/04/07 01:23:50;;;;;;;4.60;1.87;;;;;;;;;;5095141;28;20197;-87
2023/04/07 01:26:21;;;;;;;2.83;1.83;;;;;;;;;;5094745;28;20273;-86
2023/04/07 01:29:10;;;;;;;5.50;2.63;;;;;;;;;;5094522;28;20263;-86
2023/04/07 01:31:40;;;;;;;3.50;1.40;;;;;;;;;;5094996;28;20254;-87
2023/04/07 01:34:10;;;;;;;13.37;2.87;;;;;;;;;;5094327;28;20213;-87
2023/04/07 01:36:39;;;;;;;2.37;1.47;;;;;;;;;;5094452;28;20211;-87
2023/04/07 01:39:08;;;;;;;4.13;1.97;;;;;;;;;;5094674;28;20207;-87
2023/04/07 01:41:37;;;;;;;1.80;1.70;;;;;;;;;;5094503;28;20238;-88
2023/04/07 01:44:07;;;;;;;0.70;0.70;;;;;;;;;;5094668;28;20233;-86
2023/04/07 01:46:35;;;;;;;1.70;1.60;;;;;;;;;;5094433;28;20200;-87
2023/04/07 01:49:06;;;;;;;2.87;1.60;;;;;;;;;;5094402;28;20243;-88
2023/04/07 01:51:35;;;;;;;7.33;3.03;;;;;;;;;;5094479;28;20211;-87
2023/04/07 01:54:03;;;;;;;1.57;1.47;;;;;;;;;;5093987;28;20284;-87
2023/04/07 01:56:32;;;;;;;3.23;2.03;;;;;;;;;;5094162;28;20258;-87
2023/04/07 01:59:00;;;;;;;2.70;2.50;;;;;;;;;;5094348;28;20209;-87
2023/04/07 02:01:29;;;;;;;7.00;1.97;;;;;;;;;;5094088;28;20200;-87
2023/04/07 02:04:10;;;;;;;1.30;1.30;;;;;;;;;;5093978;28;20235;-87
2023/04/07 02:06:43;;;;;;;5.53;2.50;;;;;;;;;;5094083;28;20205;-86
2023/04/07 02:09:13;;;;;;;2.63;2.43;;;;;;;;;;5094041;28;20199;-86
2023/04/07 02:11:43;;;;;;;8.23;3.27;;;;;;;;;;5093916;28;20293;-87
2023/04/07 02:14:12;;;;;;;3.97;2.40;;;;;;;;;;5093391;28;20215;-87
2023/04/07 02:16:42;;;;;;;1.60;1.43;;;;;;;;;;5093994;28;20195;-87
2023/04/07 02:19:10;;;;;;;3.87;1.97;;;;;;;;;;5093858;28;20202;-88
2023/04/07 02:21:40;;;;;;;1.50;1.40;;;;;;;;;;5094034;28;20197;-87
2023/04/07 02:24:11;;;;;;;6.50;2.77;;;;;;;;;;5093938;28;20228;-87
2023/04/07 02:26:40;;;;;;;2.30;2.10;;;;;;;;;;5093388;28;20276;-87
2023/04/07 02:29:09;;;;;;;2.90;1.57;;;;;;;;;;5093369;28;20237;-87
2023/04/07 02:31:37;;;;;;;1.83;1.67;;;;;;;;;;5093048;28;20208;-87
2023/04/07 02:34:07;;;;;;;2.67;2.47;;;;;;;;;;5093772;28;20330;-87
2023/04/07 02:36:35;;;;;;;6.60;2.90;;;;;;;;;;5093637;28;20199;-87
2023/04/07 02:39:05;;;;;;;1.13;1.13;;;;;;;;;;5093874;28;20260;-86
2023/04/07 02:41:33;;;;;;;4.20;2.80;;;;;;;;;;5093109;28;20198;-86
2023/04/07 02:44:02;;;;;;;8.97;2.90;;;;;;;;;;5093674;28;20230;-87
2023/04/07 02:46:30;;;;;;;4.13;2.67;;;;;;;;;;5093924;28;20235;-90
2023/04/07 02:48:59;;;;;;;4.30;2.57;;;;;;;;;;5094228;28;20223;-90
2023/04/07 02:51:27;;;;;;;3.80;2.07;;;;;;;;;;5094787;28;20205;-90
2023/04/07 02:53:56;;;;;;;3.53;1.77;;;;;;;;;;5094364;28;20307;-90
2023/04/07 02:56:26;;;;;;;3.03;1.67;;;;;;;;;;5094309;28;20208;-89
2023/04/07 02:58:54;;;;;;;1.93;1.83;;;;;;;;;;5093467;28;20201;-88
2023/04/07 03:01:23;;;;;;;7.17;2.30;;;;;;;;;;5093882;28;20276;-90
2023/04/07 03:03:51;;;;;;;2.50;2.40;;;;;;;;;;5094076;28;20206;-90
2023/04/07 03:06:20;;;;;;;1.40;1.30;;;;;;;;;;5093925;28;20211;-90
2023/04/07 03:08:48;;;;;;;8.57;2.73;;;;;;;;;;5093626;28;20197;-90
2023/04/07 03:11:17;;;;;;;2.43;2.23;;;;;;;;;;5093030;28;20201;-89
2023/04/07 03:13:47;;;;;;;3.13;2.80;;;;;;;;;;5093036;28;20254;-89
2023/04/07 03:16:15;;;;;;;0.70;0.70;;;;;;;;;;5093856;28;20200;-90
2023/04/07 03:18:44;;;;;;;1.93;1.33;;;;;;;;;;5094424;28;20203;-89
2023/04/07 03:21:13;;;;;;;3.37;1.90;;;;;;;;;;5093995;28;20229;-89
2023/04/07 03:23:41;;;;;;;1.87;1.70;;;;;;;;;;5093179;28;20199;-89
2023/04/07 03:26:12;;;;;;;1.90;1.70;;;;;;;;;;5093853;28;20245;-89
2023/04/07 03:28:40;;;;;;;1.17;1.00;;;;;;;;;;5092918;28;20232;-90
2023/04/07 03:31:10;;;;;;;9.50;2.43;;;;;;;;;;5092449;28;20199;-90
2023/04/07 03:33:39;;;;;;;8.27;2.00;;;;;;;;;;5092807;28;20223;-90
2023/04/07 03:36:08;;;;;;;5.37;1.83;;;;;;;;;;5092361;28;20192;-88
2023/04/07 03:38:36;;;;;;;5.37;2.50;;;;;;;;;;5092329;28;20207;-89
2023/04/07 03:41:05;;;;;;;3.73;1.47;;;;;;;;;;5092617;28;20224;-90
2023/04/07 03:43:33;;;;;;;5.13;2.07;;;;;;;;;;5092736;28;20290;-90
2023/04/07 03:46:02;;;;;;;2.03;1.77;;;;;;;;;;5092827;28;20204;-89
2023/04/07 03:48:32;;;;;;;2.03;1.93;;;;;;;;;;5091974;28;20224;-90
2023/04/07 03:51:00;;;;;;;5.50;2.93;;;;;;;;;;5092329;28;20257;-90
2023/04/07 03:53:29;;;;;;;7.83;2.30;;;;;;;;;;5092690;28;20253;-90
2023/04/07 03:55:57;;;;;;;4.70;2.63;;;;;;;;;;5091927;28;20198;-90
2023/04/07 03:58:25;;;;;;;7.33;1.80;;;;;;;;;;5091784;28;20234;-90
2023/04/07 04:00:54;;;;;;;3.43;2.53;;;;;;;;;;5092611;28;20205;-90
2023/04/07 04:03:22;;;;;;;3.47;2.23;;;;;;;;;;5092150;28;20199;-90
2023/04/07 04:05:52;;;;;;;3.43;1.50;;;;;;;;;;5092020;28;20195;-90
2023/04/07 04:08:21;;;;;;;2.53;2.07;;;;;;;;;;5092105;28;20207;-90
2023/04/07 04:10:50;;;;;;;4.23;1.73;;;;;;;;;;5091575;28;20259;-90
2023/04/07 04:13:18;;;;;;;2.83;1.17;;;;;;;;;;5091456;28;20197;-90
2023/04/07 04:15:46;;;;;;;4.20;2.50;;;;;;;;;;5091918;28;20264;-90
2023/04/07 04:18:15;;;;;;;2.00;1.83;;;;;;;;;;5092272;28;20250;-90
2023/04/07 04:20:43;;;;;;;10.07;2.13;;;;;;;;;;5091916;28;20286;-90
2023/04/07 04:23:13;;;;;;;3.80;1.23;;;;;;;;;;5091784;28;20255;-90
2023/04/07 04:25:41;;;;;;;4.23;2.23;;;;;;;;;;5095631;28;20224;-90
2023/04/07 04:30:45;;;;;;;7.37;2.83;;;;;;;;;;5090072;27;20349;-90
2023/04/07 04:33:13;;;;;;;4.23;1.23;;;;;;;;;;5070010;28;20199;-89
2023/04/07 04:35:42;;;;;;;2.43;2.23;;;;;;;;;;5069619;28;20244;-88
2023/04/07 04:38:11;;;;;;;0.97;0.97;;;;;;;;;;5069252;28;20239;-90
2023/04/07 04:40:39;;;;;;;2.30;1.77;;;;;;;;;;5069899;28;20195;-90
2023/04/07 04:43:08;;;;;;;4.70;2.40;;;;;;;;;;5069510;28;20200;-90
2023/04/07 04:45:37;;;;;;;6.07;1.40;;;;;;;;;;5069995;28;20204;-90
2023/04/07 04:48:08;;;;;;;6.37;2.23;;;;;;;;;;5070337;28;20271;-89
2023/04/07 04:50:36;;;;;;;1.73;1.73;;;;;;;;;;5069785;28;20220;-89
2023/04/07 04:53:04;;;;;;;6.77;2.17;;;;;;;;;;5069320;28;20200;-87
2023/04/07 04:55:33;;;;;;;5.37;2.90;;;;;;;;;;5069302;28;20212;-90
2023/04/07 04:58:01;;;;;;;2.10;1.90;;;;;;;;;;5069949;28;20240;-87
2023/04/07 05:00:30;;;;;;;4.17;2.00;;;;;;;;;;5069223;28;20269;-86
2023/04/07 05:02:58;;;;;;;2.40;2.20;;;;;;;;;;5069443;28;20204;-87
2023/04/07 05:05:28;;;;;;;4.90;2.00;;;;;;;;;;5069123;28;20306;-87
2023/04/07 05:07:57;;;;;;;5.87;3.30;;;;;;;;;;5068542;28;20198;-87
2023/04/07 05:10:25;;;;;;;7.63;1.83;;;;;;;;;;5068236;28;20224;-87
2023/04/07 05:12:53;;;;;;;2.80;2.00;;;;;;;;;;5068370;28;20207;-87
2023/04/07 05:15:22;;;;;;;5.47;1.37;;;;;;;;;;5068975;28;20199;-87
2023/04/07 05:17:51;;;;;;;8.10;1.77;;;;;;;;;;5069094;28;20240;-87
2023/04/07 05:20:19;;;;;;;12.90;2.27;;;;;;;;;;5068229;28;20210;-87
2023/04/07 05:22:49;;;;;;;2.00;1.53;;;;;;;;;;5068759;28;20230;-87
2023/04/07 05:25:17;;;;;;;2.30;1.87;;;;;;;;;;5068678;28;20266;-87
2023/04/07 05:27:46;;;;;;;2.63;2.43;;;;;;;;;;5055605;28;20220;-87
2023/04/07 05:30:15;;;;;;;6.83;1.83;;;;;;;;;;5048097;28;20236;-86
2023/04/07 05:32:43;;;;;;;3.53;2.53;;;;;;;;;;5048358;28;20196;-87
2023/04/07 05:35:12;;;;;;;2.03;1.83;;;;;;;;;;5048074;28;20260;-87
2023/04/07 05:37:41;;;;;;;1.90;1.33;;;;;;;;;;5048266;28;20204;-87
2023/04/07 05:40:11;;;;;;;0.93;0.93;;;;;;;;;;5044951;28;20199;-88
2023/04/07 05:42:39;;;;;;;0.70;0.70;;;;;;;;;;5035068;28;20205;-88
2023/04/07 05:45:08;;;;;;;9.50;2.47;;;;;;;;;;5034837;28;20206;-87
2023/04/07 05:47:37;;;;;;;1.63;1.53;;;;;;;;;;5034946;28;20306;-86
2023/04/07 05:50:06;;;;;;;1.90;1.57;;;;;;;;;;5034895;28;20221;-88
2023/04/07 05:52:34;;;;;;;6.17;1.67;;;;;;;;;;5035107;28;20232;-87
2023/04/07 05:55:02;;;;;;;2.37;2.17;;;;;;;;;;5034913;28;20228;-87
2023/04/07 05:57:33;;;;;;;1.73;1.47;;;;;;;;;;5035679;28;20213;-87
2023/04/07 06:00:02;;;;;;;2.00;1.90;;;;;;;;;;5035223;28;20201;-86
2023/04/07 06:02:31;;;;;;;1.87;1.20;;;;;;;;;;5035771;28;20296;-89
2023/04/07 06:04:59;;;;;;;4.67;2.23;;;;;;;;;;5035127;28;20208;-89
2023/04/07 06:07:28;;;;;;;2.57;1.40;;;;;;;;;;5034690;28;20208;-89
2023/04/07 06:09:56;;;;;;;10.87;2.43;;;;;;;;;;5034642;28;20217;-89
2023/04/07 06:12:25;;;;;;;3.50;1.70;;;;;;;;;;5034589;28;20263;-89
2023/04/07 06:14:55;;;;;;;1.87;1.73;;;;;;;;;;5034772;28;20299;-89
2023/04/07 06:17:24;;;;;;;2.33;1.77;;;;;;;;;;5034407;28;20208;-88
2023/04/07 06:19:52;;;;;;;0.70;0.70;;;;;;;;;;5034749;28;20198;-89
2023/04/07 06:22:21;;;;;;;5.50;2.63;;;;;;;;;;5034689;28;20269;-89
2023/04/07 06:24:49;;;;;;;5.60;1.47;;;;;;;;;;5034575;28;20296;-89
2023/04/07 06:27:18;;;;;;;3.23;1.70;;;;;;;;;;5034615;28;20265;-89
2023/04/07 06:29:46;;;;;;;1.90;1.80;;;;;;;;;;5033627;28;20277;-89
2023/04/07 06:32:16;;;;;;;6.53;2.13;;;;;;;;;;5034798;28;20242;-86
2023/04/07 06:34:44;;;;;;;1.40;1.30;;;;;;;;;;5035481;28;20213;-87
2023/04/07 06:37:13;;;;;;;4.87;1.33;;;;;;;;;;5032752;28;20202;-84
2023/04/07 06:39:41;;;;;;;1.30;1.30;;;;;;;;;;5033360;28;20202;-84
2023/04/07 06:42:10;;;;;;;4.03;1.40;;;;;;;;;;5033673;28;20223;-84
2023/04/07 06:44:38;;;;;;;4.03;2.07;;;;;;;;;;5033248;28;20293;-84
2023/04/07 06:47:07;;;;;;;1.73;1.43;;;;;;;;;;5033648;28;20252;-85
2023/04/07 06:49:37;;;;;;;4.80;2.03;;;;;;;;;;5033538;28;20257;-84
2023/04/07 06:52:06;;;;;;;7.93;1.20;;;;;;;;;;5032297;28;20230;-84
2023/04/07 06:54:35;;;;;;;0.80;0.70;;;;;;;;;;5033152;28;20199;-85
2023/04/07 06:57:05;;;;;;;0.53;0.53;;;;;;;;;;5033295;28;20245;-85
2023/04/07 06:59:34;;;;;;;2.13;1.97;;;;;;;;;;5032805;28;20203;-85
2023/04/07 07:02:03;;;;;;;7.23;1.60;;;;;;;;;;5033279;28;20239;-85
2023/04/07 07:04:31;;;;;;;2.03;1.60;;;;;;;;;;5033289;28;20209;-85
2023/04/07 07:07:02;;;;;;;2.00;1.23;;;;;;;;;;5032634;28;20297;-85
2023/04/07 07:09:30;;;;;;;3.97;1.60;;;;;;;;;;5033033;28;20212;-85
2023/04/07 07:12:00;;;;;;;3.37;1.27;;;;;;;;;;5032977;28;20269;-88
2023/04/07 07:14:31;;;;;;;4.33;1.27;;;;;;;;;;5033518;28;20205;-88
2023/04/07 07:16:59;;;;;;;3.40;1.47;;;;;;;;;;5033449;28;20218;-89
2023/04/07 07:19:28;;;;;;;0.90;0.90;;;;;;;;;;5033266;28;20290;-88
2023/04/07 07:21:56;;;;;;;12.70;1.83;;;;;;;;;;5033171;28;20195;-88
2023/04/07 07:24:28;;;;;;;2.40;1.70;;;;;;;;;;5033100;28;20194;-85
2023/04/07 07:26:56;;;;;;;3.23;1.60;;;;;;;;;;5033135;28;20289;-85
2023/04/07 07:29:26;;;;;;;1.63;1.53;;;;;;;;;;5032241;28;20238;-85
2023/04/07 07:31:55;;;;;;;3.43;1.47;;;;;;;;;;5032572;28;20288;-85
2023/04/07 07:34:23;;;;;;;2.77;2.13;;;;;;;;;;5032916;28;20253;-85
2023/04/07 07:36:52;;;;;;;4.03;2.13;;;;;;;;;;5032534;28;20205;-85
2023/04/07 07:39:20;;;;;;;3.70;1.73;;;;;;;;;;5032314;28;20229;-85
2023/04/07 07:41:50;;;;;;;7.43;2.57;;;;;;;;;;5032457;28;20298;-85
2023/04/07 07:44:20;;;;;;;3.90;1.43;;;;;;;;;;5032566;28;20199;-88
2023/04/07 07:46:48;;;;;;;4.00;1.97;;;;;;;;;;5033022;28;20201;-88
2023/04/07 07:49:17;;;;;;;1.90;1.80;;;;;;;;;;5033587;28;20204;-89
2023/04/07 07:51:46;;;;;;;6.03;2.60;;;;;;;;;;5032629;28;20227;-89
2023/04/07 07:54:14;;;;;;;2.27;1.43;;;;;;;;;;5034015;28;20202;-88
2023/04/07 07:56:42;;;;;;;5.27;2.23;;;;;;;;;;5032837;28;20231;-88
2023/04/07 07:59:12;;;;;;;2.87;1.67;;;;;;;;;;5032509;28;20199;-88
2023/04/07 08:01:45;;;;;;;1.87;1.53;;;;;;;;;;5026406;28;20203;-88
2023/04/07 08:04:17;;;;;;;5.90;1.83;;;;;;;;;;5038425;28;20206;-87
2023/04/07 08:06:46;;;;;;;2.60;1.43;;;;;;;;;;5030063;28;20203;-88
2023/04/07 08:09:14;;;;;;;0.60;0.60;;;;;;;;;;5041896;28;20208;-87
2023/04/07 08:11:43;;;;;;;2.10;1.67;;;;;;;;;;5044555;28;20322;-87
2023/04/07 08:14:13;;;;;;;6.93;2.20;;;;;;;;;;5032198;28;20201;-88
2023/04/07 08:16:41;;;;;;;1.00;1.00;;;;;;;;;;5030732;28;20215;-87
2023/04/07 08:19:10;;;;;;;0.70;0.70;;;;;;;;;;5025184;28;20199;-88
2023/04/07 08:21:38;;;;;;;2.60;1.30;;;;;;;;;;5027611;28;20207;-89
2023/04/07 08:24:18;;;;;;;1.50;1.40;;;;;;;;;;5027645;28;20199;-88
2023/04/07 08:26:47;;;;;;;4.70;1.43;;;;;;;;;;5030274;28;20226;-89
2023/04/07 08:29:16;;;;;;;1.60;1.33;;;;;;;;;;5027882;28;20326;-88
2023/04/07 08:31:45;;;;;;;2.73;1.67;;;;;;;;;;5020682;28;20226;-89
2023/04/07 08:34:15;;;;;;;5.17;1.83;;;;;;;;;;5028044;28;20211;-88
2023/04/07 08:36:43;;;;;;;1.50;1.40;;;;;;;;;;5023417;28;20207;-89
2023/04/07 08:39:15;;;;;;;1.07;1.07;;;;;;;;;;5031622;28;20206;-88
2023/04/07 08:41:44;;;;;;;3.37;2.07;;;;;;;;;;5019512;28;20221;-86
2023/04/07 08:44:13;;;;;;;1.87;1.77;;;;;;;;;;5031012;28;20297;-87
2023/04/07 08:46:43;;;;;;;8.13;7.40;;;;;;;;;;5032474;28;20249;-83
2023/04/07 08:49:13;;;;;;;5.27;1.20;;;;;;;;;;5033312;28;20229;-83
2023/04/07 08:51:46;;;;;;;4.07;1.47;;;;;;;;;;5028076;28;20223;-83
2023/04/07 08:54:15;;;;;;;3.70;1.63;;;;;;;;;;5027752;28;20211;-83
2023/04/07 08:56:44;;;;;;;3.10;1.30;;;;;;;;;;5032076;28;20268;-83
2023/04/07 08:59:14;;;;;;;2.67;1.20;;;;;;;;;;5033229;28;20302;-83
2023/04/07 09:01:47;;;;;;;2.33;1.10;;;;;;;;;;5032112;28;20209;-83
2023/04/07 09:04:16;;;;;;;4.97;2.23;;;;;;;;;;5031670;28;20203;-83
2023/04/07 09:06:45;;;;;;;3.73;1.50;;;;;;;;;;5032006;28;20274;-87
2023/04/07 09:09:13;;;;;;;1.70;1.37;;;;;;;;;;5031913;28;20225;-87
2023/04/07 09:11:42;;;;;;;2.20;1.83;;;;;;;;;;5031616;28;20241;-83
2023/04/07 09:14:11;;;;;;;6.50;2.60;;;;;;;;;;5031153;28;20262;-83
2023/04/07 09:16:40;;;;;;;6.37;1.70;;;;;;;;;;5033264;28;20203;-84
2023/04/07 09:19:09;;;;;;;5.00;2.00;;;;;;;;;;5035386;28;20206;-83
2023/04/07 09:21:51;;;;;;;4.23;1.60;;;;;;;;;;5035101;28;20191;-83
2023/04/07 09:24:22;;;;;;;1.70;1.43;;;;;;;;;;5033664;28;20199;-83
2023/04/07 09:27:08;;;;;;;4.37;2.40;;;;;;;;;;5035330;28;20221;-83
2023/04/07 09:29:37;;;;;;;4.77;2.30;;;;;;;;;;5033509;28;20270;-83
2023/04/07 09:32:05;;;;;;;10.83;1.53;;;;;;;;;;5034933;28;20223;-87
2023/04/07 09:34:36;;;;;;;5.50;2.77;;;;;;;;;;5035299;28;20210;-88
2023/04/07 09:37:09;;;;;;;5.57;2.10;;;;;;;;;;5035380;28;20195;-88
2023/04/07 09:39:49;;;;;;;3.57;2.70;;;;;;;;;;5035326;28;20238;-87
2023/04/07 09:42:17;;;;;;;1.80;1.00;;;;;;;;;;5035324;28;20249;-83
2023/04/07 09:44:46;;;;;;;9.37;2.07;;;;;;;;;;5034784;28;20225;-83
2023/04/07 09:47:14;;;;;;;9.00;2.63;;;;;;;;;;5034335;28;20245;-83
2023/04/07 09:49:52;;;;;;;1.83;1.67;;;;;;;;;;5034515;28;20207;-83
2023/04/07 09:52:23;;;;;;;4.50;1.60;;;;;;;;;;5034343;28;20219;-83
2023/04/07 09:54:52;;;;;;;3.60;1.20;;;;;;;;;;5034212;28;20249;-83
2023/04/07 09:57:21;;;;;;;2.33;2.03;;;;;;;;;;5035171;28;20203;-83
2023/04/07 09:59:51;;;;;;;9.30;2.40;;;;;;;;;;5034423;28;20269;-83
2023/04/07 10:02:19;;;;;;;2.83;1.83;;;;;;;;;;5034052;28;20263;-83
2023/04/07 10:04:48;;;;;;;1.43;1.00;;;;;;;;;;5034398;28;20226;-83
2023/04/07 10:07:18;;;;;;;1.77;1.50;;;;;;;;;;5034188;28;20227;-83
2023/04/07 10:09:46;;;;;;;3.37;1.40;;;;;;;;;;5033951;28;20326;-87
2023/04/07 10:12:15;;;;;;;4.77;1.60;;;;;;;;;;5034661;28;20218;-88
2023/04/07 10:14:45;;;;;;;4.97;1.97;;;;;;;;;;5034617;28;20238;-87
2023/04/07 10:17:18;;;;;;;2.87;1.83;;;;;;;;;;5034661;28;20203;-86
2023/04/07 10:19:47;;;;;;;2.00;1.13;;;;;;;;;;5035227;28;20207;-87
2023/04/07 10:22:16;;;;;;;7.37;3.03;;;;;;;;;;5034699;28;20200;-88
2023/04/07 10:24:51;;;;;;;5.80;2.47;;;;;;;;;;5035026;28;20203;-87
2023/04/07 10:27:21;;;;;;;3.03;1.97;;;;;;;;;;5035257;28;20258;-86
2023/04/07 10:29:52;;;;;;;5.67;2.63;;;;;;;;;;5034578;28;20253;-87
2023/04/07 10:32:20;;;;;;;3.80;3.50;;;;;;;;;;5034761;28;20222;-87
2023/04/07 10:35:00;;;;;;;2.77;2.10;;;;;;;;;;5034956;28;20210;-86
2023/04/07 10:37:28;;;;;;;2.70;1.77;;;;;;;;;;5034995;28;20245;-86
2023/04/07 10:40:15;;;;;;;10.10;3.67;;;;;;;;;;5034210;28;20210;-87
2023/04/07 10:42:48;;;;;;;7.70;2.50;;;;;;;;;;5034827;28;20190;-86
2023/04/07 10:45:16;;;;;;;4.17;2.47;;;;;;;;;;5034610;28;20240;-87
2023/04/07 10:48:00;;;;;;;0.77;0.77;;;;;;;;;;5033442;28;20199;-87
2023/04/07 10:50:28;;;;;;;3.37;1.93;;;;;;;;;;5033229;28;20199;-87
2023/04/07 10:53:07;;;;;;;13.83;2.43;;;;;;;;;;5033662;28;20325;-87
2023/04/07 10:55:36;;;;;;;2.77;2.50;;;;;;;;;;5033272;28;20197;-87
2023/04/07 10:58:20;;;;;;;4.73;1.47;;;;;;;;;;5033695;28;20205;-87
2023/04/07 11:01:13;;;;;;;6.00;1.57;;;;;;;;;;5033854;28;20333;-87
2023/04/07 11:03:42;;;;;;;11.33;4.50;;;;;;;;;;5014562;28;20211;-87
2023/04/07 11:06:11;;;;;;;2.73;2.20;;;;;;;;;;5033076;28;20226;-83
2023/04/07 11:08:41;;;;;;;1.57;1.47;;;;;;;;;;5033205;28;20206;-84
2023/04/07 11:11:14;;;;;;;1.90;1.43;;;;;;;;;;5031737;28;20203;-84
2023/04/07 11:13:48;;;;;;;5.00;1.97;;;;;;;;;;5021078;28;20227;-86
2023/04/07 11:16:20;;;;;;;2.07;1.67;;;;;;;;;;5029986;28;20214;-87
2023/04/07 11:18:49;;;;;;;4.03;2.17;;;;;;;;;;5034428;28;20223;-87
2023/04/07 11:21:18;;;;;;;0.87;0.87;;;;;;;;;;5025723;28;20200;-89
2023/04/07 11:23:47;;;;;;;2.63;1.17;;;;;;;;;;5029536;28;20321;-86
2023/04/07 11:26:16;;;;;;;4.63;2.57;;;;;;;;;;5025744;28;20215;-86
2023/04/07 11:28:46;;;;;;;5.30;1.20;;;;;;;;;;5023409;28;20207;-86
2023/04/07 11:31:23;;;;;;;1.73;1.63;;;;;;;;;;5024903;28;20254;-86
2023/04/07 11:33:53;;;;;;;6.20;1.53;;;;;;;;;;5028526;28;20222;-87
2023/04/07 11:36:29;;;;;;;5.00;2.17;;;;;;;;;;5024763;28;20256;-86
2023/04/07 11:38:58;;;;;;;0.80;0.80;;;;;;;;;;5026293;28;20218;-86
2023/04/07 11:41:31;;;;;;;2.17;1.57;;;;;;;;;;5024447;28;20207;-85
2023/04/07 11:44:06;;;;;;;1.23;1.00;;;;;;;;;;5029664;28;20202;-84
2023/04/07 11:46:36;;;;;;;9.00;2.60;;;;;;;;;;5022788;28;20206;-84
2023/04/07 11:49:12;;;;;;;3.83;2.73;;;;;;;;;;5034519;28;20214;-84
2023/04/07 11:51:44;;;;;;;4.30;2.27;;;;;;;;;;5026978;28;20238;-84
2023/04/07 11:54:14;;;;;;;5.00;2.33;;;;;;;;;;5025378;28;20245;-83
2023/04/07 11:56:44;;;;;;;2.50;2.30;;;;;;;;;;5026835;28;20236;-84
2023/04/07 11:59:21;;;;;;;1.07;1.07;;;;;;;;;;5030437;28;20227;-84
2023/04/07 12:01:52;;;;;;;2.17;1.20;;;;;;;;;;5023501;28;20211;-84
2023/04/07 12:04:24;;;;;;;1.80;1.70;;;;;;;;;;5028829;28;20206;-84
2023/04/07 12:06:56;;;;;;;2.33;1.60;;;;;;;;;;5025212;28;20199;-83
2023/04/07 12:09:28;;;;;;;5.17;1.93;;;;;;;;;;5023907;28;20206;-85
2023/04/07 12:11:57;;;;;;;2.43;1.43;;;;;;;;;;5028868;28;20238;-84
2023/04/07 12:14:26;;;;;;;2.87;2.00;;;;;;;;;;5024531;28;20225;-84
2023/04/07 12:16:57;;;;;;;2.93;1.77;;;;;;;;;;5031689;28;20210;-84
2023/04/07 12:19:27;;;;;;;2.20;1.67;;;;;;;;;;5032267;28;20235;-84
2023/04/07 12:21:55;;;;;;;8.30;2.53;;;;;;;;;;5035496;28;20211;-84
2023/04/07 12:24:24;;;;;;;10.50;1.87;;;;;;;;;;5028146;28;20196;-83
2023/04/07 12:26:52;;;;;;;3.20;2.07;;;;;;;;;;5028533;28;20237;-84
2023/04/07 12:29:21;;;;;;;4.80;2.27;;;;;;;;;;5029146;28;20277;-84
2023/04/07 12:31:50;;;;;;;2.67;2.00;;;;;;;;;;5047397;28;20210;-84
2023/04/07 12:34:20;;;;;;;4.97;1.97;;;;;;;;;;5024986;28;20218;-84
2023/04/07 12:36:49;;;;;;;2.70;1.60;;;;;;;;;;5023518;28;20298;-84
2023/04/07 12:39:17;;;;;;;5.67;2.90;;;;;;;;;;5026004;28;20214;-84
2023/04/07 12:41:47;;;;;;;4.33;1.53;;;;;;;;;;5036164;28;20211;-83
2023/04/07 12:44:16;;;;;;;4.03;2.53;;;;;;;;;;5029961;28;20253;-84
2023/04/07 12:46:45;;;;;;;4.27;2.20;;;;;;;;;;5028113;28;20199;-84
2023/04/07 12:49:13;;;;;;;1.83;1.73;;;;;;;;;;5044421;28;20236;-84
2023/04/07 12:51:43;;;;;;;4.83;2.40;;;;;;;;;;5032912;28;20212;-84
2023/04/07 12:54:12;;;;;;;2.63;1.70;;;;;;;;;;5037940;28;20313;-84
2023/04/07 12:56:41;;;;;;;1.17;1.17;;;;;;;;;;5043604;28;20202;-83
2023/04/07 12:59:09;;;;;;;6.73;2.10;;;;;;;;;;5039821;28;20218;-84
2023/04/07 13:01:38;;;;;;;2.37;1.63;;;;;;;;;;5051340;28;20283;-86
2023/04/07 13:04:07;;;;;;;2.33;2.13;;;;;;;;;;5035590;28;20206;-86
2023/04/07 13:06:36;;;;;;;2.20;1.33;;;;;;;;;;5042813;28;20242;-86
2023/04/07 13:09:05;;;;;;;1.93;1.43;;;;;;;;;;5034962;28;20246;-87
2023/04/07 13:11:35;;;;;;;3.83;1.80;;;;;;;;;;5051028;28;20221;-86
2023/04/07 13:14:03;;;;;;;9.37;2.67;;;;;;;;;;5036175;28;20221;-85
2023/04/07 13:16:32;;;;;;;2.23;2.03;;;;;;;;;;5043040;28;20229;-85
2023/04/07 13:19:01;;;;;;;4.67;2.10;;;;;;;;;;5042310;28;20203;-85
2023/04/07 13:21:29;;;;;;;2.47;1.53;;;;;;;;;;5038142;28;20265;-85
2023/04/07 13:24:01;;;;;;;0.90;0.90;;;;;;;;;;5022393;28;20199;-85
2023/04/07 13:26:31;;;;;;;4.77;2.17;;;;;;;;;;5029074;28;20298;-85
2023/04/07 13:28:59;;;;;;;1.20;1.20;;;;;;;;;;5037040;28;20245;-86
2023/04/07 13:31:29;;;;;;;5.77;2.60;;;;;;;;;;5033870;28;20239;-85
2023/04/07 13:33:57;;;;;;;6.70;2.23;;;;;;;;;;5032003;28;20215;-86
2023/04/07 13:36:27;;;;;;;1.87;1.77;;;;;;;;;;5030919;28;20200;-85
2023/04/07 13:38:55;;;;;;;2.87;1.60;;;;;;;;;;5030971;28;20265;-86
2023/04/07 13:41:25;;;;;;;3.93;2.30;;;;;;;;;;5034498;28;20207;-86
2023/04/07 13:43:55;;;;;;;3.83;2.20;;;;;;;;;;5049054;28;20209;-86
2023/04/07 13:46:23;;;;;;;1.77;1.67;;;;;;;;;;5047376;28;20200;-86
2023/04/07 13:48:56;;;;;;;5.77;2.77;;;;;;;;;;5044098;28;20228;-86
2023/04/07 13:51:25;;;;;;;1.53;0.90;;;;;;;;;;5053636;28;20260;-86
2023/04/07 13:53:53;;;;;;;2.03;1.47;;;;;;;;;;5034420;28;20226;-86
2023/04/07 13:56:22;;;;;;;2.47;2.07;;;;;;;;;;5039995;28;20305;-86
2023/04/07 13:58:51;;;;;;;3.57;2.50;;;;;;;;;;5042894;28;20241;-87
2023/04/07 14:01:21;;;;;;;3.63;1.70;;;;;;;;;;5039264;28;20277;-86
2023/04/07 14:03:49;;;;;;;21.50;2.73;;;;;;;;;;5036291;28;20215;-86
2023/04/07 14:06:21;;;;;;;1.33;1.23;;;;;;;;;;5040040;28;20297;-86
2023/04/07 14:08:50;;;;;;;2.00;1.63;;;;;;;;;;5032347;28;20238;-87
2023/04/07 14:11:19;;;;;;;1.77;1.67;;;;;;;;;;5045071;28;20206;-86
2023/04/07 14:13:47;;;;;;;5.70;2.77;;;;;;;;;;5032264;28;20239;-85
2023/04/07 14:16:16;;;;;;;6.23;2.57;;;;;;;;;;5040487;28;20222;-85
2023/04/07 14:18:48;;;;;;;3.17;2.67;;;;;;;;;;5043884;28;20206;-85
2023/04/07 14:21:16;;;;;;;4.47;3.23;;;;;;;;;;5030632;28;20210;-85
2023/04/07 14:23:45;;;;;;;2.13;2.00;;;;;;;;;;5044337;28;20206;-84
2023/04/07 14:26:13;;;;;;;5.10;3.03;;;;;;;;;;5040544;28;20195;-85
2023/04/07 14:28:42;;;;;;;8.67;4.37;;;;;;;;;;5045382;28;20217;-85
2023/04/07 14:31:13;;;;;;;4.17;3.10;;;;;;;;;;5037483;28;20245;-85
2023/04/07 14:33:42;;;;;;;2.43;2.33;;;;;;;;;;5039215;28;20207;-85
2023/04/07 14:36:14;;;;;;;3.07;1.80;;;;;;;;;;5035961;28;20199;-86
2023/04/07 14:38:43;;;;;;;2.73;2.20;;;;;;;;;;5038583;28;20218;-88
2023/04/07 14:41:13;;;;;;;3.83;1.43;;;;;;;;;;5032888;28;20249;-88
2023/04/07 14:43:42;;;;;;;10.40;4.93;;;;;;;;;;5034138;28;20293;-87
2023/04/07 14:46:11;;;;;;;3.13;1.57;;;;;;;;;;5039255;28;20205;-87
2023/04/07 14:48:39;;;;;;;2.93;2.67;;;;;;;;;;5031762;28;20253;-87
2023/04/07 14:51:12;;;;;;;4.47;3.33;;;;;;;;;;5037332;28;20211;-86
2023/04/07 14:53:42;;;;;;;1.80;1.70;;;;;;;;;;5039064;28;20203;-87
2023/04/07 14:56:10;;;;;;;3.63;2.07;;;;;;;;;;5042510;28;20314;-87
2023/04/07 14:58:39;;;;;;;3.00;2.73;;;;;;;;;;5036529;28;20202;-91
2023/04/07 15:01:08;;;;;;;7.30;3.60;;;;;;;;;;5035955;28;20244;-91